createdAt,value
2023-03-04T00:01:02.104Z,18.57
2023-03-04T00:03:37.401Z,18.57
2023-03-04T00:06:10.872Z,16.05
2023-03-04T00:08:44.261Z,19.80
2023-03-04T00:11:17.660Z,18.75
2023-03-04T00:13:50.520Z,19.65
2023-03-04T00:16:23.610Z,13.98
2023-03-04T00:18:58.665Z,18.65
2023-03-04T00:21:32.538Z,23.42
2023-03-04T00:24:07.174Z,21.62
2023-03-04T00:26:41.567Z,17.60
2023-03-04T00:29:14.489Z,17.80
2023-03-04T00:31:48.079Z,17.52
2023-03-04T00:34:21.656Z,17.97
2023-03-04T00:36:56.791Z,15.30
2023-03-04T00:39:30.342Z,17.87
2023-03-04T00:42:03.216Z,16.93
2023-03-04T00:44:36.716Z,16.73
2023-03-04T00:47:09.701Z,16.07
2023-03-04T00:49:43.408Z,16.20
2023-03-04T00:52:16.780Z,15.15
2023-03-04T00:54:51.131Z,17.27
2023-03-04T00:57:24.635Z,18.03
2023-03-04T00:59:58.242Z,19.35
2023-03-04T01:02:31.175Z,14.53
2023-03-04T01:05:06.429Z,18.57
2023-03-04T01:07:39.845Z,18.45
2023-03-04T01:10:15.599Z,17.45
2023-03-04T01:12:49.166Z,17.60
2023-03-04T01:15:22.350Z,18.00
2023-03-04T01:17:56.473Z,15.75
2023-03-04T01:20:29.311Z,16.55
2023-03-04T01:23:02.356Z,18.35
2023-03-04T01:25:35.656Z,17.92
2023-03-04T01:28:08.753Z,16.20
2023-03-04T01:30:42.429Z,19.52
2023-03-04T01:33:16.189Z,19.95
2023-03-04T01:35:49.676Z,17.55
2023-03-04T01:38:23.121Z,18.30
2023-03-04T01:40:56.450Z,16.20
2023-03-04T01:43:31.729Z,20.25
2023-03-04T01:46:05.310Z,13.53
2023-03-04T01:48:40.489Z,18.67
2023-03-04T01:51:19.614Z,20.77
2023-03-04T01:53:55.093Z,20.32
2023-03-04T01:56:31.864Z,23.10
2023-03-04T01:59:15.438Z,22.82
2023-03-04T02:01:55.838Z,19.73
2023-03-04T02:04:34.783Z,20.60
2023-03-04T02:07:09.526Z,21.45
2023-03-04T02:09:42.904Z,20.10
2023-03-04T02:12:18.954Z,24.12
2023-03-04T02:14:51.894Z,27.73
2023-03-04T02:17:29.052Z,23.52
2023-03-04T02:20:35.458Z,22.85
2023-03-04T02:23:25.365Z,20.12
2023-03-04T02:26:20.756Z,23.22
2023-03-04T02:28:57.336Z,23.45
2023-03-04T02:31:37.643Z,23.75
2023-03-04T02:34:16.757Z,20.30
2023-03-04T02:36:52.942Z,21.52
2023-03-04T02:39:38.686Z,21.42
2023-03-04T02:42:12.639Z,25.88
2023-03-04T02:44:50.166Z,23.75
2023-03-04T02:47:24.394Z,23.57
2023-03-04T02:49:57.035Z,28.77
2023-03-04T02:52:30.785Z,21.37
2023-03-04T02:55:03.803Z,24.67
2023-03-04T02:57:36.614Z,23.15
2023-03-04T03:02:44.751Z,29.42
2023-03-04T03:05:18.195Z,25.37
2023-03-04T03:07:51.422Z,22.63
2023-03-04T03:10:25.759Z,21.07
2023-03-04T03:12:59.217Z,30.55
2023-03-04T03:15:32.912Z,22.45
2023-03-04T03:18:05.712Z,26.12
2023-03-04T03:20:39.087Z,23.87
2023-03-04T03:23:12.703Z,23.70
2023-03-04T03:25:45.593Z,21.70
2023-03-04T03:28:18.945Z,24.63
2023-03-04T03:30:52.118Z,22.98
2023-03-04T03:33:25.459Z,21.35
2023-03-04T03:35:58.278Z,23.20
2023-03-04T03:38:31.349Z,20.27
2023-03-04T03:41:04.501Z,26.30
2023-03-04T03:43:37.617Z,26.97
2023-03-04T03:46:10.506Z,19.12
2023-03-04T03:48:44.255Z,21.23
2023-03-04T03:51:18.073Z,23.02
2023-03-04T03:53:50.859Z,18.40
2023-03-04T03:56:23.687Z,22.07
2023-03-04T03:58:56.770Z,22.82
2023-03-04T04:01:29.933Z,20.80
2023-03-04T04:04:03.267Z,22.37
2023-03-04T04:06:36.125Z,26.73
2023-03-04T04:09:08.986Z,20.95
2023-03-04T04:11:42.009Z,18.50
2023-03-04T04:14:16.196Z,20.88
2023-03-04T04:16:49.106Z,25.15
2023-03-04T04:19:22.754Z,21.35
2023-03-04T04:24:28.233Z,19.73
2023-03-04T04:27:02.193Z,19.70
2023-03-04T04:29:36.608Z,22.80
2023-03-04T04:32:12.072Z,21.68
2023-03-04T04:34:45.525Z,19.25
2023-03-04T04:37:18.690Z,21.97
2023-03-04T04:39:52.404Z,23.90
2023-03-04T04:42:26.229Z,23.83
2023-03-04T04:44:59.746Z,19.05
2023-03-04T04:47:32.869Z,23.32
2023-03-04T04:50:07.658Z,23.27
2023-03-04T04:52:42.253Z,24.98
2023-03-04T04:55:15.241Z,21.12
2023-03-04T04:57:48.277Z,20.27
2023-03-04T05:00:21.630Z,24.07
2023-03-04T05:02:55.476Z,20.88
2023-03-04T05:05:28.163Z,21.97
2023-03-04T05:08:01.568Z,25.62
2023-03-04T05:10:35.254Z,19.62
2023-03-04T05:13:08.128Z,23.57
2023-03-04T05:15:42.134Z,36.53
2023-03-04T05:18:14.984Z,29.90
2023-03-04T05:20:56.985Z,25.70
2023-03-04T05:23:34.261Z,24.82
2023-03-04T05:26:07.986Z,23.67
2023-03-04T05:28:41.020Z,25.80
2023-03-04T05:31:14.452Z,26.48
2023-03-04T05:33:48.774Z,24.20
2023-03-04T05:36:21.635Z,23.42
2023-03-04T05:38:54.727Z,34.10
2023-03-04T05:41:28.067Z,26.10
2023-03-04T05:44:01.527Z,29.55
2023-03-04T05:46:34.675Z,26.17
2023-03-04T05:49:08.019Z,26.65
2023-03-04T05:51:40.909Z,30.05
2023-03-04T05:54:13.955Z,30.85
2023-03-04T05:56:47.506Z,29.95
2023-03-04T05:59:20.994Z,28.20
2023-03-04T06:01:54.218Z,27.85
2023-03-04T06:04:27.004Z,28.92
2023-03-04T06:07:00.503Z,35.58
2023-03-04T06:09:34.225Z,31.20
2023-03-04T06:12:07.357Z,29.92
2023-03-04T06:14:40.809Z,30.30
2023-03-04T06:17:14.069Z,32.60
2023-03-04T06:19:46.958Z,26.17
2023-03-04T06:24:53.167Z,27.05
2023-03-04T06:27:26.984Z,34.30
2023-03-04T06:30:01.948Z,27.73
2023-03-04T06:35:07.867Z,29.07
2023-03-04T06:37:40.767Z,28.12
2023-03-04T06:40:14.211Z,29.55
2023-03-04T06:42:48.901Z,29.07
2023-03-04T06:45:23.326Z,26.60
2023-03-04T06:47:56.507Z,30.32
2023-03-04T06:50:29.269Z,31.02
2023-03-04T06:53:03.034Z,28.27
2023-03-04T06:55:36.639Z,27.93
2023-03-04T06:58:09.883Z,24.47
2023-03-04T07:00:42.687Z,32.17
2023-03-04T07:03:16.399Z,26.77
2023-03-04T07:05:50.107Z,27.05
2023-03-04T07:08:23.100Z,30.27
2023-03-04T07:10:57.051Z,25.30
2023-03-04T07:13:29.928Z,22.95
2023-03-04T07:16:03.672Z,24.50
2023-03-04T07:18:38.288Z,26.75
2023-03-04T07:21:11.910Z,25.97
2023-03-04T07:23:46.024Z,29.32
2023-03-04T07:26:19.528Z,21.60
2023-03-04T07:28:54.317Z,23.38
2023-03-04T07:31:31.390Z,23.98
2023-03-04T07:34:08.490Z,25.23
2023-03-04T07:36:42.178Z,19.98
2023-03-04T07:39:15.899Z,22.00
2023-03-04T07:41:48.614Z,21.37
2023-03-04T07:44:22.143Z,21.05
2023-03-04T07:46:54.936Z,18.92
2023-03-04T07:49:28.228Z,21.17
2023-03-04T07:52:07.246Z,19.90
2023-03-04T07:54:40.388Z,27.27
2023-03-04T07:57:14.186Z,16.62
2023-03-04T07:59:48.290Z,18.82
2023-03-04T08:02:21.007Z,18.85
2023-03-04T08:04:53.991Z,16.77
2023-03-04T08:07:27.315Z,15.53
2023-03-04T08:10:00.902Z,15.68
2023-03-04T08:12:34.049Z,17.25
2023-03-04T08:15:08.645Z,17.48
2023-03-04T08:17:42.060Z,16.27
2023-03-04T08:20:15.433Z,15.50
2023-03-04T08:22:48.374Z,10.38
2023-03-04T08:25:21.564Z,13.83
2023-03-04T08:30:27.475Z,11.80
2023-03-04T08:33:00.414Z,14.68
2023-03-04T08:35:35.114Z,19.45
2023-03-04T08:38:08.385Z,12.25
2023-03-04T08:40:42.514Z,17.75
2023-03-04T08:43:16.292Z,11.00
2023-03-04T08:45:49.487Z,12.03
2023-03-04T08:48:23.077Z,15.13
2023-03-04T08:50:56.352Z,10.98
2023-03-04T08:53:29.914Z,11.65
2023-03-04T08:56:02.867Z,11.63
2023-03-04T08:58:36.863Z,13.83
2023-03-04T09:01:12.638Z,13.08
2023-03-04T09:03:46.000Z,13.75
2023-03-04T09:06:19.584Z,18.87
2023-03-04T09:08:52.476Z,13.28
2023-03-04T09:11:26.161Z,13.43
2023-03-04T09:14:00.077Z,18.70
2023-03-04T09:16:33.451Z,12.15
2023-03-04T09:19:06.447Z,12.60
2023-03-04T09:21:39.827Z,13.43
2023-03-04T09:24:12.611Z,17.85
2023-03-04T09:26:46.270Z,13.05
2023-03-04T09:29:19.687Z,10.72
2023-03-04T09:31:52.493Z,16.87
2023-03-04T09:34:25.260Z,19.45
2023-03-04T09:36:58.126Z,12.73
2023-03-04T09:39:31.642Z,15.03
2023-03-04T09:42:05.634Z,16.80
2023-03-04T09:44:44.378Z,12.82
2023-03-04T09:47:19.175Z,14.78
2023-03-04T09:50:00.142Z,14.38
2023-03-04T09:53:08.078Z,13.70
2023-03-04T09:55:47.823Z,10.93
2023-03-04T09:58:51.061Z,15.18
2023-03-04T10:01:41.405Z,14.73
2023-03-04T10:04:33.588Z,15.65
2023-03-04T10:07:11.577Z,11.25
2023-03-04T10:09:55.216Z,18.12
2023-03-04T10:12:31.681Z,14.60
2023-03-04T10:15:17.113Z,12.95
2023-03-04T10:17:55.573Z,15.48
2023-03-04T10:20:36.189Z,19.05
2023-03-04T10:23:20.017Z,15.20
2023-03-04T10:25:54.728Z,16.40
2023-03-04T10:31:17.612Z,10.28
2023-03-04T10:33:51.242Z,12.58
2023-03-04T10:36:57.208Z,10.78
2023-03-04T10:39:45.208Z,11.20
2023-03-04T10:42:23.218Z,13.20
2023-03-04T10:45:00.193Z,10.43
2023-03-04T10:47:35.612Z,11.60
2023-03-04T10:50:15.256Z,18.80
2023-03-04T10:52:52.961Z,8.73
2023-03-04T10:55:33.625Z,13.28
2023-03-04T10:58:08.005Z,15.20
2023-03-04T11:00:41.449Z,18.00
2023-03-04T11:03:31.126Z,33.77
2023-03-04T11:06:23.142Z,18.98
2023-03-04T11:09:00.196Z,13.85
2023-03-04T11:11:46.611Z,14.47
2023-03-04T11:14:38.828Z,15.00
2023-03-04T11:17:27.599Z,21.25
2023-03-04T11:20:17.591Z,16.00
2023-03-04T11:22:50.510Z,19.45
2023-03-04T11:25:30.203Z,13.60
2023-03-04T11:28:23.127Z,17.27
2023-03-04T11:31:00.661Z,15.60
2023-03-04T11:34:07.704Z,13.70
2023-03-04T11:37:03.854Z,13.55
2023-03-04T11:39:40.182Z,14.73
2023-03-04T11:42:36.557Z,25.27
2023-03-04T11:45:28.457Z,16.73
2023-03-04T11:48:10.337Z,14.47
2023-03-04T11:51:09.631Z,18.10
2023-03-04T11:54:08.555Z,14.05
2023-03-04T11:56:51.537Z,17.87
2023-03-04T11:59:55.180Z,14.30
2023-03-04T12:02:51.207Z,15.53
2023-03-04T12:05:53.601Z,19.52
2023-03-04T12:08:35.330Z,23.73
2023-03-04T12:11:24.035Z,20.43
2023-03-04T12:14:17.198Z,24.20
2023-03-04T12:17:21.226Z,22.80
2023-03-04T12:20:22.928Z,20.65
2023-03-04T12:23:19.367Z,22.50
2023-03-04T12:26:05.844Z,22.93
2023-03-04T12:29:01.271Z,17.40
2023-03-04T12:31:50.010Z,21.75
2023-03-04T12:34:36.574Z,16.62
2023-03-04T12:37:47.479Z,20.68
2023-03-04T12:40:33.750Z,23.05
2023-03-04T12:43:37.628Z,30.45
2023-03-04T12:46:36.025Z,19.90
2023-03-04T12:49:46.582Z,21.48
2023-03-04T12:52:45.230Z,20.52
2023-03-04T12:55:21.835Z,20.08
2023-03-04T12:57:57.083Z,19.60
2023-03-04T13:00:55.903Z,18.12
2023-03-04T13:04:04.850Z,38.48
2023-03-04T13:07:12.937Z,18.92
2023-03-04T13:10:14.909Z,22.15
2023-03-04T13:13:00.397Z,16.32
2023-03-04T13:15:39.732Z,19.65
2023-03-04T13:18:35.525Z,18.77
2023-03-04T13:21:25.066Z,18.45
2023-03-04T13:23:58.299Z,23.32
2023-03-04T13:26:36.746Z,25.75
2023-03-04T13:29:29.513Z,19.37
2023-03-04T13:32:11.167Z,18.95
2023-03-04T13:34:54.380Z,17.70
2023-03-04T13:37:36.923Z,23.12
2023-03-04T13:40:37.748Z,17.20
2023-03-04T13:43:41.077Z,20.82
2023-03-04T13:46:28.088Z,23.15
2023-03-04T13:49:04.510Z,19.17
2023-03-04T13:51:46.182Z,19.30
2023-03-04T13:54:30.678Z,19.50
2023-03-04T13:57:21.660Z,19.10
2023-03-04T13:59:58.878Z,17.82
2023-03-04T14:02:35.155Z,16.07
2023-03-04T14:05:11.871Z,23.30
2023-03-04T14:07:45.236Z,17.23
2023-03-04T14:10:26.957Z,19.95
2023-03-04T14:13:01.784Z,15.25
2023-03-04T14:15:36.164Z,17.80
2023-03-04T14:18:09.557Z,17.50
2023-03-04T14:20:47.814Z,17.30
2023-03-04T14:23:37.256Z,19.30
2023-03-04T14:26:14.988Z,16.17
2023-03-04T14:28:53.457Z,34.48
2023-03-04T14:31:30.630Z,15.35
2023-03-04T14:34:05.094Z,15.95
2023-03-04T14:36:39.702Z,18.12
2023-03-04T14:39:17.950Z,14.18
2023-03-04T14:41:52.307Z,15.23
2023-03-04T14:44:50.038Z,15.10
2023-03-04T14:47:44.708Z,18.70
2023-03-04T14:50:21.369Z,15.20
2023-03-04T14:53:14.027Z,21.65
2023-03-04T14:56:11.531Z,12.25
2023-03-04T14:58:59.841Z,14.10
2023-03-04T15:01:37.082Z,15.53
2023-03-04T15:04:13.827Z,13.88
2023-03-04T15:06:54.968Z,14.70
2023-03-04T15:09:29.159Z,14.75
2023-03-04T15:12:08.383Z,13.05
2023-03-04T15:14:52.314Z,16.07
2023-03-04T15:17:41.435Z,15.38
2023-03-04T15:20:24.920Z,18.17
2023-03-04T15:23:07.507Z,14.03
2023-03-04T15:25:40.315Z,18.05
2023-03-04T15:28:20.355Z,13.93
2023-03-04T15:30:53.689Z,14.50
2023-03-04T15:33:26.620Z,16.15
2023-03-04T15:36:04.408Z,19.98
2023-03-04T15:38:37.486Z,14.40
2023-03-04T15:41:23.917Z,14.18
2023-03-04T15:43:58.754Z,17.23
2023-03-04T15:46:31.693Z,14.47
2023-03-04T15:49:04.726Z,15.63
2023-03-04T15:51:38.789Z,18.50
2023-03-04T15:54:14.633Z,13.70
2023-03-04T15:56:48.447Z,17.23
2023-03-04T15:59:22.154Z,17.48
2023-03-04T16:01:55.396Z,18.10
2023-03-04T16:04:28.719Z,14.53
2023-03-04T16:07:01.688Z,14.18
2023-03-04T16:09:35.429Z,15.05
2023-03-04T16:12:12.142Z,15.88
2023-03-04T16:14:46.755Z,15.65
2023-03-04T16:17:21.033Z,15.03
2023-03-04T16:19:54.400Z,14.47
2023-03-04T16:22:29.975Z,15.68
2023-03-04T16:25:02.987Z,14.10
2023-03-04T16:27:36.636Z,14.40
2023-03-04T16:30:16.563Z,16.25
2023-03-04T16:32:49.884Z,12.23
2023-03-04T16:35:28.862Z,18.07
2023-03-04T16:38:03.577Z,16.85
2023-03-04T16:40:37.103Z,14.58
2023-03-04T16:43:13.985Z,16.12
2023-03-04T16:45:47.388Z,15.88
2023-03-04T16:48:21.107Z,16.20
2023-03-04T16:50:54.261Z,16.85
2023-03-04T16:56:17.402Z,14.35
2023-03-04T16:58:50.984Z,17.55
2023-03-04T17:01:30.245Z,18.57
2023-03-04T17:04:03.564Z,18.25
2023-03-04T17:09:11.435Z,17.67
2023-03-04T17:11:45.004Z,13.22
2023-03-04T17:14:18.607Z,15.78
2023-03-04T17:16:52.264Z,16.57
2023-03-04T17:19:26.086Z,17.07
2023-03-04T17:22:03.213Z,17.92
2023-03-04T17:24:41.460Z,18.75
2023-03-04T17:27:14.542Z,21.65
2023-03-04T17:29:49.401Z,16.90
2023-03-04T17:32:22.726Z,16.90
2023-03-04T17:34:58.860Z,16.52
2023-03-04T17:37:32.022Z,14.18
2023-03-04T17:40:09.243Z,18.17
2023-03-04T17:42:44.138Z,18.02
2023-03-04T17:45:19.186Z,19.57
2023-03-04T17:47:52.322Z,18.17
2023-03-04T17:50:25.507Z,20.57
2023-03-04T17:52:59.006Z,21.73
2023-03-04T17:55:32.165Z,21.15
2023-03-04T17:58:05.486Z,17.87
2023-03-04T18:00:39.511Z,17.27
2023-03-04T18:03:17.328Z,20.57
2023-03-04T18:05:50.261Z,23.70
2023-03-04T18:08:24.374Z,17.67
2023-03-04T18:10:58.109Z,18.80
2023-03-04T18:13:31.260Z,20.90
2023-03-04T18:16:05.115Z,16.85
2023-03-04T18:18:40.928Z,18.42
2023-03-04T18:21:15.465Z,16.75
2023-03-04T18:23:48.883Z,16.52
2023-03-04T18:26:25.465Z,15.83
2023-03-04T18:29:04.235Z,21.00
2023-03-04T18:31:37.985Z,18.00
2023-03-04T18:34:12.052Z,16.80
2023-03-04T18:36:44.875Z,17.67
2023-03-04T18:39:18.297Z,16.45
2023-03-04T18:41:51.108Z,18.30
2023-03-04T18:44:23.941Z,14.35
2023-03-04T18:46:58.165Z,15.95
2023-03-04T18:49:31.886Z,15.15
2023-03-04T18:52:05.435Z,14.70
2023-03-04T18:54:38.542Z,14.38
2023-03-04T18:57:14.673Z,14.80
2023-03-04T18:59:59.515Z,17.55
2023-03-04T19:02:50.032Z,16.45
2023-03-04T19:05:29.764Z,16.82
2023-03-04T19:08:03.268Z,18.50
2023-03-04T19:10:37.078Z,17.95
2023-03-04T19:13:10.577Z,21.17
2023-03-04T19:15:43.614Z,18.90
2023-03-04T19:18:16.488Z,21.15
2023-03-04T19:20:50.244Z,21.42
2023-03-04T19:23:25.061Z,21.30
2023-03-04T19:28:29.984Z,21.25
2023-03-04T19:31:08.097Z,23.40
2023-03-04T19:33:42.559Z,23.00
2023-03-04T19:36:15.396Z,26.40
2023-03-04T19:38:49.819Z,26.75
2023-03-04T19:41:23.528Z,25.75
2023-03-04T19:43:58.683Z,25.15
2023-03-04T19:46:32.493Z,25.37
2023-03-04T19:49:06.159Z,26.02
2023-03-04T19:51:39.658Z,24.43
2023-03-04T19:54:12.468Z,23.83
2023-03-04T19:56:46.295Z,26.85
2023-03-04T19:59:19.264Z,27.07
2023-03-04T20:01:52.426Z,32.35
2023-03-04T20:04:25.221Z,27.82
2023-03-04T20:06:59.051Z,30.08
2023-03-04T20:09:33.943Z,25.82
2023-03-04T20:12:07.464Z,30.17
2023-03-04T20:14:40.343Z,27.60
2023-03-04T20:17:15.775Z,29.87
2023-03-04T20:19:48.974Z,25.75
2023-03-04T20:22:22.041Z,26.12
2023-03-04T20:24:55.245Z,26.07
2023-03-04T20:27:28.574Z,29.75
2023-03-04T20:30:03.804Z,30.68
2023-03-04T20:32:36.684Z,25.32
2023-03-04T20:35:12.015Z,26.60
2023-03-04T20:37:45.999Z,29.48
2023-03-04T20:40:19.174Z,27.07
2023-03-04T20:42:52.270Z,31.42
2023-03-04T20:45:25.264Z,28.57
2023-03-04T20:47:57.925Z,27.07
2023-03-04T20:50:31.382Z,29.85
2023-03-04T20:53:04.501Z,26.50
2023-03-04T20:55:37.305Z,28.80
2023-03-04T20:58:10.104Z,28.15
2023-03-04T21:00:42.944Z,27.32
2023-03-04T21:03:16.262Z,26.12
2023-03-04T21:05:49.207Z,28.60
2023-03-04T21:08:23.340Z,38.90
2023-03-04T21:10:57.496Z,29.52
2023-03-04T21:13:32.759Z,32.63
2023-03-04T21:16:06.955Z,31.62
2023-03-04T21:18:40.225Z,32.40
2023-03-04T21:21:22.458Z,30.35
2023-03-04T21:23:57.288Z,33.18
2023-03-04T21:26:30.285Z,37.38
2023-03-04T21:29:03.240Z,35.83
2023-03-04T21:31:40.467Z,37.88
2023-03-04T21:34:30.461Z,34.38
2023-03-04T21:37:04.911Z,34.92
2023-03-04T21:39:38.519Z,39.25
2023-03-04T21:42:12.113Z,39.58
2023-03-04T21:44:49.596Z,35.40
2023-03-04T21:47:21.654Z,41.00
2023-03-04T21:49:55.008Z,39.73
2023-03-04T21:52:27.940Z,41.33
2023-03-04T21:55:01.072Z,42.20
2023-03-04T21:57:34.246Z,50.70
2023-03-04T22:00:08.799Z,44.08
2023-03-04T22:02:43.317Z,52.53
2023-03-04T22:05:17.951Z,45.38
2023-03-04T22:07:50.992Z,45.35
2023-03-04T22:10:24.253Z,51.20
2023-03-04T22:12:58.262Z,57.60
2023-03-04T22:15:31.176Z,53.17
2023-03-04T22:18:06.441Z,51.90
2023-03-04T22:20:42.497Z,57.85
2023-03-04T22:23:15.836Z,54.05
2023-03-04T22:25:49.420Z,58.63
2023-03-04T22:28:24.941Z,52.05
2023-03-04T22:30:58.878Z,54.23
2023-03-04T22:33:33.701Z,56.13
2023-03-04T22:36:07.782Z,53.02
2023-03-04T22:38:41.813Z,55.98
2023-03-04T22:41:17.665Z,62.93
2023-03-04T22:43:51.556Z,57.70
2023-03-04T22:49:06.058Z,64.37
2023-03-04T22:51:41.618Z,64.67
2023-03-04T22:54:17.910Z,60.80
2023-03-04T22:56:50.734Z,60.48
2023-03-04T22:59:23.610Z,56.75
2023-03-04T23:01:57.333Z,68.72
2023-03-04T23:04:30.301Z,65.10
2023-03-04T23:07:04.470Z,57.53
2023-03-04T23:09:37.938Z,59.90
2023-03-04T23:12:11.689Z,62.00
2023-03-04T23:14:45.077Z,59.58
2023-03-04T23:17:18.716Z,61.42
2023-03-04T23:19:51.799Z,60.40
2023-03-04T23:22:25.422Z,59.30
2023-03-04T23:24:58.276Z,55.58
2023-03-04T23:27:31.157Z,56.35
2023-03-04T23:30:04.905Z,59.70
2023-03-04T23:32:38.240Z,58.68
2023-03-04T23:35:12.007Z,59.88
2023-03-04T23:40:19.461Z,60.00
2023-03-04T23:42:53.474Z,59.50
2023-03-04T23:45:26.428Z,56.60
2023-03-04T23:47:59.927Z,51.42
2023-03-04T23:50:34.934Z,56.80
2023-03-04T23:53:08.327Z,60.00
2023-03-04T23:55:42.409Z,55.38
2023-03-04T23:58:16.023Z,53.87
